sensor_id;sensor_type;location;lat;lon;timestamp;temperature;humidity
20998;DHT22;10657;51.276;6.390;2023-07-30T00:00:50;17.90;99.90
20998;DHT22;10657;51.276;6.390;2023-07-30T00:03:17;17.80;99.90
20998;DHT22;10657;51.276;6.390;2023-07-30T00:05:55;17.70;99.90
20998;DHT22;10657;51.276;6.390;2023-07-30T00:08:22;17.70;99.90
20998;DHT22;10657;51.276;6.390;2023-07-30T00:10:49;17.50;99.90
20998;DHT22;10657;51.276;6.390;2023-07-30T00:13:16;17.50;99.90
20998;DHT22;10657;51.276;6.390;2023-07-30T00:15:42;17.60;99.90
20998;DHT22;10657;51.276;6.390;2023-07-30T00:18:09;17.50;99.90
20998;DHT22;10657;51.276;6.390;2023-07-30T00:20:36;17.60;99.90
20998;DHT22;10657;51.276;6.390;2023-07-30T00:23:02;17.60;99.90
20998;DHT22;10657;51.276;6.390;2023-07-30T00:25:29;17.60;99.90
20998;DHT22;10657;51.276;6.390;2023-07-30T00:27:56;17.40;99.90
20998;DHT22;10657;51.276;6.390;2023-07-30T00:30:23;17.40;99.90
20998;DHT22;10657;51.276;6.390;2023-07-30T00:32:49;17.50;99.90
20998;DHT22;10657;51.276;6.390;2023-07-30T00:35:16;17.40;99.90
20998;DHT22;10657;51.276;6.390;2023-07-30T00:37:43;17.40;99.90
20998;DHT22;10657;51.276;6.390;2023-07-30T00:40:10;17.30;99.90
20998;DHT22;10657;51.276;6.390;2023-07-30T00:42:37;17.30;99.90
20998;DHT22;10657;51.276;6.390;2023-07-30T00:45:04;17.30;99.90
20998;DHT22;10657;51.276;6.390;2023-07-30T00:47:31;17.30;99.90
20998;DHT22;10657;51.276;6.390;2023-07-30T00:49:59;17.30;99.90
20998;DHT22;10657;51.276;6.390;2023-07-30T00:52:26;17.10;99.90
20998;DHT22;10657;51.276;6.390;2023-07-30T00:54:54;17.20;99.90
20998;DHT22;10657;51.276;6.390;2023-07-30T00:57:23;17.20;99.90
20998;DHT22;10657;51.276;6.390;2023-07-30T00:59:50;17.20;99.90
20998;DHT22;10657;51.276;6.390;2023-07-30T01:02:17;17.20;99.90
20998;DHT22;10657;51.276;6.390;2023-07-30T01:04:44;17.20;99.90
20998;DHT22;10657;51.276;6.390;2023-07-30T01:07:11;17.20;99.90
20998;DHT22;10657;51.276;6.390;2023-07-30T01:09:38;17.10;99.90
20998;DHT22;10657;51.276;6.390;2023-07-30T01:12:05;17.10;99.90
20998;DHT22;10657;51.276;6.390;2023-07-30T01:14:32;17.00;99.90
20998;DHT22;10657;51.276;6.390;2023-07-30T01:17:00;17.00;99.90
20998;DHT22;10657;51.276;6.390;2023-07-30T01:19:26;16.90;99.90
20998;DHT22;10657;51.276;6.390;2023-07-30T01:21:53;16.90;99.90
20998;DHT22;10657;51.276;6.390;2023-07-30T01:24:20;16.90;99.90
20998;DHT22;10657;51.276;6.390;2023-07-30T01:27:14;16.80;99.90
20998;DHT22;10657;51.276;6.390;2023-07-30T01:29:42;16.80;99.90
20998;DHT22;10657;51.276;6.390;2023-07-30T01:32:13;16.80;99.90
20998;DHT22;10657;51.276;6.390;2023-07-30T01:34:41;16.80;99.90
20998;DHT22;10657;51.276;6.390;2023-07-30T01:37:12;16.70;99.90
20998;DHT22;10657;51.276;6.390;2023-07-30T01:39:40;16.80;99.90
20998;DHT22;10657;51.276;6.390;2023-07-30T01:42:12;16.70;99.90
20998;DHT22;10657;51.276;6.390;2023-07-30T01:44:38;16.70;99.90
20998;DHT22;10657;51.276;6.390;2023-07-30T01:47:05;16.70;99.90
20998;DHT22;10657;51.276;6.390;2023-07-30T01:49:32;16.70;99.90
20998;DHT22;10657;51.276;6.390;2023-07-30T01:51:59;16.70;99.90
20998;DHT22;10657;51.276;6.390;2023-07-30T01:54:25;16.60;99.90
20998;DHT22;10657;51.276;6.390;2023-07-30T01:56:53;16.70;99.90
20998;DHT22;10657;51.276;6.390;2023-07-30T01:59:20;16.60;99.90
20998;DHT22;10657;51.276;6.390;2023-07-30T02:01:47;16.50;99.90
20998;DHT22;10657;51.276;6.390;2023-07-30T02:04:13;16.50;99.90
20998;DHT22;10657;51.276;6.390;2023-07-30T02:06:40;16.50;99.90
20998;DHT22;10657;51.276;6.390;2023-07-30T02:09:07;16.50;99.90
20998;DHT22;10657;51.276;6.390;2023-07-30T02:11:33;16.50;99.90
20998;DHT22;10657;51.276;6.390;2023-07-30T02:14:00;16.40;99.90
20998;DHT22;10657;51.276;6.390;2023-07-30T02:16:27;16.30;99.90
20998;DHT22;10657;51.276;6.390;2023-07-30T02:18:53;16.30;99.90
20998;DHT22;10657;51.276;6.390;2023-07-30T02:21:20;16.30;99.90
20998;DHT22;10657;51.276;6.390;2023-07-30T02:23:47;16.30;99.90
20998;DHT22;10657;51.276;6.390;2023-07-30T02:26:13;16.30;99.90
20998;DHT22;10657;51.276;6.390;2023-07-30T02:28:40;16.30;99.90
20998;DHT22;10657;51.276;6.390;2023-07-30T02:31:07;16.30;99.90
20998;DHT22;10657;51.276;6.390;2023-07-30T02:33:33;16.30;99.90
20998;DHT22;10657;51.276;6.390;2023-07-30T02:36:00;16.20;99.90
20998;DHT22;10657;51.276;6.390;2023-07-30T02:38:27;16.20;99.90
20998;DHT22;10657;51.276;6.390;2023-07-30T02:40:53;16.20;99.90
20998;DHT22;10657;51.276;6.390;2023-07-30T02:43:20;16.10;99.90
20998;DHT22;10657;51.276;6.390;2023-07-30T02:45:47;16.10;99.90
20998;DHT22;10657;51.276;6.390;2023-07-30T02:48:14;16.20;99.90
20998;DHT22;10657;51.276;6.390;2023-07-30T02:50:41;16.10;99.90
20998;DHT22;10657;51.276;6.390;2023-07-30T02:53:08;16.10;99.90
20998;DHT22;10657;51.276;6.390;2023-07-30T02:55:34;16.00;99.90
20998;DHT22;10657;51.276;6.390;2023-07-30T02:58:01;16.00;99.90
20998;DHT22;10657;51.276;6.390;2023-07-30T03:00:28;16.00;99.90
20998;DHT22;10657;51.276;6.390;2023-07-30T03:02:56;16.00;99.90
20998;DHT22;10657;51.276;6.390;2023-07-30T03:05:23;16.00;99.90
20998;DHT22;10657;51.276;6.390;2023-07-30T03:07:50;16.00;99.90
20998;DHT22;10657;51.276;6.390;2023-07-30T03:10:16;15.90;99.90
20998;DHT22;10657;51.276;6.390;2023-07-30T03:12:43;15.90;99.90
20998;DHT22;10657;51.276;6.390;2023-07-30T03:15:10;15.90;99.90
20998;DHT22;10657;51.276;6.390;2023-07-30T03:17:36;15.80;99.90
20998;DHT22;10657;51.276;6.390;2023-07-30T03:20:04;15.90;99.90
20998;DHT22;10657;51.276;6.390;2023-07-30T03:22:31;15.90;99.90
20998;DHT22;10657;51.276;6.390;2023-07-30T03:24:57;15.80;99.90
20998;DHT22;10657;51.276;6.390;2023-07-30T03:27:24;15.90;99.90
20998;DHT22;10657;51.276;6.390;2023-07-30T03:29:51;15.80;99.90
20998;DHT22;10657;51.276;6.390;2023-07-30T03:32:17;15.70;99.90
20998;DHT22;10657;51.276;6.390;2023-07-30T03:34:44;15.70;99.90
20998;DHT22;10657;51.276;6.390;2023-07-30T03:37:10;15.70;99.90
20998;DHT22;10657;51.276;6.390;2023-07-30T03:39:37;15.80;99.90
20998;DHT22;10657;51.276;6.390;2023-07-30T03:42:04;15.70;99.90
20998;DHT22;10657;51.276;6.390;2023-07-30T03:44:31;15.60;99.90
20998;DHT22;10657;51.276;6.390;2023-07-30T03:46:57;15.70;99.90
20998;DHT22;10657;51.276;6.390;2023-07-30T03:49:24;15.70;99.90
20998;DHT22;10657;51.276;6.390;2023-07-30T03:51:50;15.70;99.90
20998;DHT22;10657;51.276;6.390;2023-07-30T03:54:17;15.70;99.90
20998;DHT22;10657;51.276;6.390;2023-07-30T03:56:44;15.70;99.90
20998;DHT22;10657;51.276;6.390;2023-07-30T03:59:10;15.70;99.90
20998;DHT22;10657;51.276;6.390;2023-07-30T04:01:37;15.80;99.90
20998;DHT22;10657;51.276;6.390;2023-07-30T04:04:04;15.70;99.90
20998;DHT22;10657;51.276;6.390;2023-07-30T04:06:31;15.80;99.90
20998;DHT22;10657;51.276;6.390;2023-07-30T04:08:58;15.80;99.90
20998;DHT22;10657;51.276;6.390;2023-07-30T04:11:24;15.80;99.90
20998;DHT22;10657;51.276;6.390;2023-07-30T04:13:51;15.80;99.90
20998;DHT22;10657;51.276;6.390;2023-07-30T04:16:18;15.80;99.90
20998;DHT22;10657;51.276;6.390;2023-07-30T04:18:44;15.90;99.90
20998;DHT22;10657;51.276;6.390;2023-07-30T04:21:11;15.90;99.90
20998;DHT22;10657;51.276;6.390;2023-07-30T04:23:38;16.00;99.90
20998;DHT22;10657;51.276;6.390;2023-07-30T04:26:04;16.00;99.90
20998;DHT22;10657;51.276;6.390;2023-07-30T04:28:31;16.00;99.90
20998;DHT22;10657;51.276;6.390;2023-07-30T04:30:58;16.00;99.90
20998;DHT22;10657;51.276;6.390;2023-07-30T04:33:25;16.10;99.90
20998;DHT22;10657;51.276;6.390;2023-07-30T04:35:52;16.10;99.90
20998;DHT22;10657;51.276;6.390;2023-07-30T04:38:19;16.10;99.90
20998;DHT22;10657;51.276;6.390;2023-07-30T04:40:46;16.10;99.90
20998;DHT22;10657;51.276;6.390;2023-07-30T04:43:13;16.10;99.90
20998;DHT22;10657;51.276;6.390;2023-07-30T04:45:39;16.20;99.90
20998;DHT22;10657;51.276;6.390;2023-07-30T04:48:06;16.20;99.90
20998;DHT22;10657;51.276;6.390;2023-07-30T04:50:33;16.20;99.90
20998;DHT22;10657;51.276;6.390;2023-07-30T04:53:00;16.30;99.90
20998;DHT22;10657;51.276;6.390;2023-07-30T04:55:26;16.30;99.90
20998;DHT22;10657;51.276;6.390;2023-07-30T04:57:53;16.30;99.90
20998;DHT22;10657;51.276;6.390;2023-07-30T05:00:19;16.30;99.90
20998;DHT22;10657;51.276;6.390;2023-07-30T05:02:46;16.30;99.90
20998;DHT22;10657;51.276;6.390;2023-07-30T05:05:13;16.20;99.90
20998;DHT22;10657;51.276;6.390;2023-07-30T05:07:39;16.30;99.90
20998;DHT22;10657;51.276;6.390;2023-07-30T05:10:06;16.30;99.90
20998;DHT22;10657;51.276;6.390;2023-07-30T05:12:37;16.30;99.90
20998;DHT22;10657;51.276;6.390;2023-07-30T05:15:04;16.30;99.90
20998;DHT22;10657;51.276;6.390;2023-07-30T05:17:31;16.30;99.90
20998;DHT22;10657;51.276;6.390;2023-07-30T05:19:57;16.20;99.90
20998;DHT22;10657;51.276;6.390;2023-07-30T05:22:24;16.20;99.90
20998;DHT22;10657;51.276;6.390;2023-07-30T05:24:51;16.10;99.90
20998;DHT22;10657;51.276;6.390;2023-07-30T05:27:18;16.20;99.90
20998;DHT22;10657;51.276;6.390;2023-07-30T05:29:45;16.30;99.90
20998;DHT22;10657;51.276;6.390;2023-07-30T05:32:14;16.20;99.90
20998;DHT22;10657;51.276;6.390;2023-07-30T05:34:41;16.20;99.90
20998;DHT22;10657;51.276;6.390;2023-07-30T05:37:08;16.10;99.90
20998;DHT22;10657;51.276;6.390;2023-07-30T05:39:35;16.20;99.90
20998;DHT22;10657;51.276;6.390;2023-07-30T05:42:02;16.20;99.90
20998;DHT22;10657;51.276;6.390;2023-07-30T05:44:28;16.20;99.90
20998;DHT22;10657;51.276;6.390;2023-07-30T05:46:55;16.20;99.90
20998;DHT22;10657;51.276;6.390;2023-07-30T05:49:22;16.20;99.90
20998;DHT22;10657;51.276;6.390;2023-07-30T05:51:48;16.20;99.90
20998;DHT22;10657;51.276;6.390;2023-07-30T05:54:16;16.20;99.90
20998;DHT22;10657;51.276;6.390;2023-07-30T05:56:43;16.20;99.90
20998;DHT22;10657;51.276;6.390;2023-07-30T05:59:09;16.10;99.90
20998;DHT22;10657;51.276;6.390;2023-07-30T06:01:36;16.00;99.90
20998;DHT22;10657;51.276;6.390;2023-07-30T06:04:03;15.90;99.90
20998;DHT22;10657;51.276;6.390;2023-07-30T06:06:30;16.10;99.90
20998;DHT22;10657;51.276;6.390;2023-07-30T06:08:56;16.10;99.90
20998;DHT22;10657;51.276;6.390;2023-07-30T06:11:24;16.10;99.90
20998;DHT22;10657;51.276;6.390;2023-07-30T06:13:50;16.20;99.90
20998;DHT22;10657;51.276;6.390;2023-07-30T06:16:18;16.10;99.90
20998;DHT22;10657;51.276;6.390;2023-07-30T06:18:47;16.10;99.90
20998;DHT22;10657;51.276;6.390;2023-07-30T06:21:13;16.20;99.90
20998;DHT22;10657;51.276;6.390;2023-07-30T06:23:40;16.10;99.90
20998;DHT22;10657;51.276;6.390;2023-07-30T06:26:07;16.20;99.90
20998;DHT22;10657;51.276;6.390;2023-07-30T06:28:33;16.30;99.90
20998;DHT22;10657;51.276;6.390;2023-07-30T06:31:03;16.30;99.90
20998;DHT22;10657;51.276;6.390;2023-07-30T06:33:30;16.30;99.90
20998;DHT22;10657;51.276;6.390;2023-07-30T06:35:59;16.30;99.90
20998;DHT22;10657;51.276;6.390;2023-07-30T06:38:25;16.30;99.90
20998;DHT22;10657;51.276;6.390;2023-07-30T06:40:52;16.40;99.90
20998;DHT22;10657;51.276;6.390;2023-07-30T06:43:19;16.40;99.90
20998;DHT22;10657;51.276;6.390;2023-07-30T06:45:45;16.40;99.90
20998;DHT22;10657;51.276;6.390;2023-07-30T06:48:12;16.50;99.90
20998;DHT22;10657;51.276;6.390;2023-07-30T06:50:39;16.60;99.90
20998;DHT22;10657;51.276;6.390;2023-07-30T06:53:06;16.60;99.90
20998;DHT22;10657;51.276;6.390;2023-07-30T06:55:32;16.50;99.90
20998;DHT22;10657;51.276;6.390;2023-07-30T06:57:59;16.50;99.90
20998;DHT22;10657;51.276;6.390;2023-07-30T07:00:25;16.50;99.90
20998;DHT22;10657;51.276;6.390;2023-07-30T07:02:52;16.60;99.90
20998;DHT22;10657;51.276;6.390;2023-07-30T07:05:19;16.70;99.90
20998;DHT22;10657;51.276;6.390;2023-07-30T07:07:46;16.70;99.90
20998;DHT22;10657;51.276;6.390;2023-07-30T07:10:13;16.70;99.90
20998;DHT22;10657;51.276;6.390;2023-07-30T07:12:40;16.60;99.90
20998;DHT22;10657;51.276;6.390;2023-07-30T07:15:07;16.60;99.90
20998;DHT22;10657;51.276;6.390;2023-07-30T07:17:33;16.70;99.90
20998;DHT22;10657;51.276;6.390;2023-07-30T07:20:00;16.70;99.90
20998;DHT22;10657;51.276;6.390;2023-07-30T07:22:27;16.70;99.90
20998;DHT22;10657;51.276;6.390;2023-07-30T07:24:53;16.70;99.90
20998;DHT22;10657;51.276;6.390;2023-07-30T07:27:20;16.80;99.90
20998;DHT22;10657;51.276;6.390;2023-07-30T07:29:50;16.70;99.90
20998;DHT22;10657;51.276;6.390;2023-07-30T07:32:18;16.80;99.90
20998;DHT22;10657;51.276;6.390;2023-07-30T07:34:48;16.70;99.90
20998;DHT22;10657;51.276;6.390;2023-07-30T07:37:16;16.80;99.90
20998;DHT22;10657;51.276;6.390;2023-07-30T07:39:45;16.80;99.90
20998;DHT22;10657;51.276;6.390;2023-07-30T07:42:12;16.80;99.90
20998;DHT22;10657;51.276;6.390;2023-07-30T07:44:39;16.80;99.90
20998;DHT22;10657;51.276;6.390;2023-07-30T07:47:05;16.80;99.90
20998;DHT22;10657;51.276;6.390;2023-07-30T07:49:32;16.90;99.90
20998;DHT22;10657;51.276;6.390;2023-07-30T07:51:59;17.00;99.90
20998;DHT22;10657;51.276;6.390;2023-07-30T07:54:25;17.00;99.90
20998;DHT22;10657;51.276;6.390;2023-07-30T07:56:52;16.90;99.90
20998;DHT22;10657;51.276;6.390;2023-07-30T07:59:18;17.00;99.90
20998;DHT22;10657;51.276;6.390;2023-07-30T08:01:45;17.00;99.90
20998;DHT22;10657;51.276;6.390;2023-07-30T08:04:12;17.00;99.90
20998;DHT22;10657;51.276;6.390;2023-07-30T08:06:39;17.00;99.90
20998;DHT22;10657;51.276;6.390;2023-07-30T08:09:05;17.00;99.90
20998;DHT22;10657;51.276;6.390;2023-07-30T08:11:33;17.00;99.90
20998;DHT22;10657;51.276;6.390;2023-07-30T08:13:59;17.20;99.90
20998;DHT22;10657;51.276;6.390;2023-07-30T08:16:26;17.10;99.90
20998;DHT22;10657;51.276;6.390;2023-07-30T08:18:53;17.20;99.90
20998;DHT22;10657;51.276;6.390;2023-07-30T08:21:21;17.20;99.90
20998;DHT22;10657;51.276;6.390;2023-07-30T08:23:48;17.20;99.90
20998;DHT22;10657;51.276;6.390;2023-07-30T08:26:15;17.30;99.90
20998;DHT22;10657;51.276;6.390;2023-07-30T08:28:42;17.30;99.90
20998;DHT22;10657;51.276;6.390;2023-07-30T08:31:08;17.20;99.90
20998;DHT22;10657;51.276;6.390;2023-07-30T08:33:35;17.00;99.90
20998;DHT22;10657;51.276;6.390;2023-07-30T08:36:02;17.10;99.90
20998;DHT22;10657;51.276;6.390;2023-07-30T08:38:28;17.20;99.90
20998;DHT22;10657;51.276;6.390;2023-07-30T08:40:57;17.00;99.90
20998;DHT22;10657;51.276;6.390;2023-07-30T08:43:23;17.10;99.90
20998;DHT22;10657;51.276;6.390;2023-07-30T08:45:50;17.20;99.90
20998;DHT22;10657;51.276;6.390;2023-07-30T08:48:17;17.30;99.90
20998;DHT22;10657;51.276;6.390;2023-07-30T08:50:44;17.30;99.90
20998;DHT22;10657;51.276;6.390;2023-07-30T08:53:12;17.30;99.90
20998;DHT22;10657;51.276;6.390;2023-07-30T08:55:41;17.30;99.90
20998;DHT22;10657;51.276;6.390;2023-07-30T08:58:09;17.30;99.90
20998;DHT22;10657;51.276;6.390;2023-07-30T09:00:38;17.30;99.90
20998;DHT22;10657;51.276;6.390;2023-07-30T09:03:08;17.40;99.90
20998;DHT22;10657;51.276;6.390;2023-07-30T09:05:35;17.50;99.90
20998;DHT22;10657;51.276;6.390;2023-07-30T09:08:03;17.60;99.90
20998;DHT22;10657;51.276;6.390;2023-07-30T09:10:29;17.70;99.90
20998;DHT22;10657;51.276;6.390;2023-07-30T09:12:57;17.80;99.90
20998;DHT22;10657;51.276;6.390;2023-07-30T09:15:34;17.90;99.90
20998;DHT22;10657;51.276;6.390;2023-07-30T09:18:01;18.00;99.90
20998;DHT22;10657;51.276;6.390;2023-07-30T09:20:33;18.20;99.90
20998;DHT22;10657;51.276;6.390;2023-07-30T09:23:02;18.30;99.90
20998;DHT22;10657;51.276;6.390;2023-07-30T09:25:29;18.40;99.90
20998;DHT22;10657;51.276;6.390;2023-07-30T09:27:56;18.50;99.90
20998;DHT22;10657;51.276;6.390;2023-07-30T09:30:24;18.60;99.90
20998;DHT22;10657;51.276;6.390;2023-07-30T09:32:52;18.60;99.90
20998;DHT22;10657;51.276;6.390;2023-07-30T09:35:22;18.60;99.90
20998;DHT22;10657;51.276;6.390;2023-07-30T09:38:02;18.50;99.90
20998;DHT22;10657;51.276;6.390;2023-07-30T09:40:36;18.50;99.90
20998;DHT22;10657;51.276;6.390;2023-07-30T09:43:04;18.60;99.90
20998;DHT22;10657;51.276;6.390;2023-07-30T09:45:35;18.80;99.90
20998;DHT22;10657;51.276;6.390;2023-07-30T09:48:04;18.80;99.90
20998;DHT22;10657;51.276;6.390;2023-07-30T09:50:33;18.90;99.90
20998;DHT22;10657;51.276;6.390;2023-07-30T09:53:01;19.10;99.90
20998;DHT22;10657;51.276;6.390;2023-07-30T09:55:28;19.20;99.90
20998;DHT22;10657;51.276;6.390;2023-07-30T09:57:55;19.20;99.90
20998;DHT22;10657;51.276;6.390;2023-07-30T10:00:22;19.10;99.90
20998;DHT22;10657;51.276;6.390;2023-07-30T10:02:49;19.10;99.90
20998;DHT22;10657;51.276;6.390;2023-07-30T10:05:18;19.10;99.90
20998;DHT22;10657;51.276;6.390;2023-07-30T10:08:11;19.20;99.90
20998;DHT22;10657;51.276;6.390;2023-07-30T10:10:40;19.40;99.90
20998;DHT22;10657;51.276;6.390;2023-07-30T10:13:08;19.40;99.90
20998;DHT22;10657;51.276;6.390;2023-07-30T10:15:39;19.50;99.90
20998;DHT22;10657;51.276;6.390;2023-07-30T10:18:06;19.60;99.90
20998;DHT22;10657;51.276;6.390;2023-07-30T10:20:33;19.60;99.90
20998;DHT22;10657;51.276;6.390;2023-07-30T10:23:00;19.60;99.90
20998;DHT22;10657;51.276;6.390;2023-07-30T10:25:30;19.50;99.90
20998;DHT22;10657;51.276;6.390;2023-07-30T10:27:58;19.50;99.90
20998;DHT22;10657;51.276;6.390;2023-07-30T10:30:31;19.50;99.90
20998;DHT22;10657;51.276;6.390;2023-07-30T10:33:09;19.30;99.90
20998;DHT22;10657;51.276;6.390;2023-07-30T10:38:28;19.40;99.90
20998;DHT22;10657;51.276;6.390;2023-07-30T10:41:03;19.50;99.90
20998;DHT22;10657;51.276;6.390;2023-07-30T10:43:34;19.50;99.90
20998;DHT22;10657;51.276;6.390;2023-07-30T10:46:01;19.60;99.90
20998;DHT22;10657;51.276;6.390;2023-07-30T10:48:36;19.70;99.90
20998;DHT22;10657;51.276;6.390;2023-07-30T10:51:05;19.60;99.90
20998;DHT22;10657;51.276;6.390;2023-07-30T10:53:32;19.60;99.90
20998;DHT22;10657;51.276;6.390;2023-07-30T10:56:00;19.70;99.90
20998;DHT22;10657;51.276;6.390;2023-07-30T10:58:32;19.90;99.90
20998;DHT22;10657;51.276;6.390;2023-07-30T11:01:01;20.10;99.90
20998;DHT22;10657;51.276;6.390;2023-07-30T11:03:28;20.10;99.90
20998;DHT22;10657;51.276;6.390;2023-07-30T11:05:55;20.10;99.90
20998;DHT22;10657;51.276;6.390;2023-07-30T11:08:35;20.20;99.90
20998;DHT22;10657;51.276;6.390;2023-07-30T11:11:04;20.00;99.90
20998;DHT22;10657;51.276;6.390;2023-07-30T11:13:41;19.90;99.90
20998;DHT22;10657;51.276;6.390;2023-07-30T11:16:09;20.00;99.90
20998;DHT22;10657;51.276;6.390;2023-07-30T11:18:37;20.10;99.90
20998;DHT22;10657;51.276;6.390;2023-07-30T11:21:05;20.10;99.90
20998;DHT22;10657;51.276;6.390;2023-07-30T11:23:33;20.10;99.90
20998;DHT22;10657;51.276;6.390;2023-07-30T11:26:02;20.30;99.90
20998;DHT22;10657;51.276;6.390;2023-07-30T11:28:34;20.30;99.90
20998;DHT22;10657;51.276;6.390;2023-07-30T11:31:16;20.20;99.90
20998;DHT22;10657;51.276;6.390;2023-07-30T11:33:45;20.30;99.90
20998;DHT22;10657;51.276;6.390;2023-07-30T11:36:25;20.40;99.90
20998;DHT22;10657;51.276;6.390;2023-07-30T11:38:53;20.20;99.90
20998;DHT22;10657;51.276;6.390;2023-07-30T11:41:20;20.10;99.90
20998;DHT22;10657;51.276;6.390;2023-07-30T11:43:48;20.20;99.90
20998;DHT22;10657;51.276;6.390;2023-07-30T11:46:16;20.40;99.90
20998;DHT22;10657;51.276;6.390;2023-07-30T11:48:45;20.50;99.90
20998;DHT22;10657;51.276;6.390;2023-07-30T11:51:26;20.30;99.90
20998;DHT22;10657;51.276;6.390;2023-07-30T11:53:58;20.40;99.90
20998;DHT22;10657;51.276;6.390;2023-07-30T11:56:30;20.30;99.90
20998;DHT22;10657;51.276;6.390;2023-07-30T12:01:28;20.20;99.90
20998;DHT22;10657;51.276;6.390;2023-07-30T12:03:59;20.20;99.90
20998;DHT22;10657;51.276;6.390;2023-07-30T12:06:45;20.20;99.90
20998;DHT22;10657;51.276;6.390;2023-07-30T12:09:19;20.10;99.90
20998;DHT22;10657;51.276;6.390;2023-07-30T12:11:51;20.10;99.90
20998;DHT22;10657;51.276;6.390;2023-07-30T12:14:21;19.90;99.90
20998;DHT22;10657;51.276;6.390;2023-07-30T12:16:47;20.00;99.90
20998;DHT22;10657;51.276;6.390;2023-07-30T12:19:14;20.00;99.90
20998;DHT22;10657;51.276;6.390;2023-07-30T12:21:41;19.90;99.90
20998;DHT22;10657;51.276;6.390;2023-07-30T12:24:08;20.10;99.90
20998;DHT22;10657;51.276;6.390;2023-07-30T12:26:35;20.20;99.90
20998;DHT22;10657;51.276;6.390;2023-07-30T12:29:01;20.40;99.90
20998;DHT22;10657;51.276;6.390;2023-07-30T12:31:28;20.60;99.90
20998;DHT22;10657;51.276;6.390;2023-07-30T12:33:55;20.50;99.90
20998;DHT22;10657;51.276;6.390;2023-07-30T12:36:22;20.60;99.90
20998;DHT22;10657;51.276;6.390;2023-07-30T12:38:48;20.50;99.90
20998;DHT22;10657;51.276;6.390;2023-07-30T12:41:15;20.40;99.90
20998;DHT22;10657;51.276;6.390;2023-07-30T12:43:42;20.70;99.90
20998;DHT22;10657;51.276;6.390;2023-07-30T12:46:09;21.00;99.90
20998;DHT22;10657;51.276;6.390;2023-07-30T12:48:35;20.70;99.90
20998;DHT22;10657;51.276;6.390;2023-07-30T12:51:02;20.70;99.90
20998;DHT22;10657;51.276;6.390;2023-07-30T12:53:29;21.10;99.90
20998;DHT22;10657;51.276;6.390;2023-07-30T12:55:56;21.20;99.90
20998;DHT22;10657;51.276;6.390;2023-07-30T12:58:22;21.20;99.90
20998;DHT22;10657;51.276;6.390;2023-07-30T13:00:49;21.40;99.90
20998;DHT22;10657;51.276;6.390;2023-07-30T13:03:16;21.50;99.90
20998;DHT22;10657;51.276;6.390;2023-07-30T13:05:42;21.70;99.90
20998;DHT22;10657;51.276;6.390;2023-07-30T13:08:09;22.10;99.90
20998;DHT22;10657;51.276;6.390;2023-07-30T13:10:36;22.30;99.90
20998;DHT22;10657;51.276;6.390;2023-07-30T13:13:02;22.30;99.90
20998;DHT22;10657;51.276;6.390;2023-07-30T13:15:29;22.30;99.90
20998;DHT22;10657;51.276;6.390;2023-07-30T13:17:56;22.30;99.90
20998;DHT22;10657;51.276;6.390;2023-07-30T13:20:23;22.60;99.90
20998;DHT22;10657;51.276;6.390;2023-07-30T13:22:52;22.70;99.90
20998;DHT22;10657;51.276;6.390;2023-07-30T13:25:20;22.10;99.90
20998;DHT22;10657;51.276;6.390;2023-07-30T13:27:46;21.40;99.90
20998;DHT22;10657;51.276;6.390;2023-07-30T13:30:13;21.00;99.90
20998;DHT22;10657;51.276;6.390;2023-07-30T13:32:40;21.00;99.90
20998;DHT22;10657;51.276;6.390;2023-07-30T13:35:07;20.70;99.90
20998;DHT22;10657;51.276;6.390;2023-07-30T13:37:34;20.80;99.90
20998;DHT22;10657;51.276;6.390;2023-07-30T13:40:00;21.00;99.90
20998;DHT22;10657;51.276;6.390;2023-07-30T13:42:27;21.30;99.90
20998;DHT22;10657;51.276;6.390;2023-07-30T13:44:54;21.60;99.90
20998;DHT22;10657;51.276;6.390;2023-07-30T13:47:20;22.30;99.90
20998;DHT22;10657;51.276;6.390;2023-07-30T13:49:47;22.50;99.90
20998;DHT22;10657;51.276;6.390;2023-07-30T13:52:14;22.80;99.90
20998;DHT22;10657;51.276;6.390;2023-07-30T13:54:41;22.60;99.90
20998;DHT22;10657;51.276;6.390;2023-07-30T13:57:08;22.30;99.90
20998;DHT22;10657;51.276;6.390;2023-07-30T13:59:35;22.80;99.90
20998;DHT22;10657;51.276;6.390;2023-07-30T14:02:02;22.80;99.90
20998;DHT22;10657;51.276;6.390;2023-07-30T14:04:29;23.00;99.90
20998;DHT22;10657;51.276;6.390;2023-07-30T14:06:56;22.70;99.90
20998;DHT22;10657;51.276;6.390;2023-07-30T14:09:22;22.50;99.90
20998;DHT22;10657;51.276;6.390;2023-07-30T14:11:51;22.30;99.90
20998;DHT22;10657;51.276;6.390;2023-07-30T14:14:17;22.30;99.90
20998;DHT22;10657;51.276;6.390;2023-07-30T14:16:44;22.00;99.90
20998;DHT22;10657;51.276;6.390;2023-07-30T14:19:13;21.80;99.90
20998;DHT22;10657;51.276;6.390;2023-07-30T14:21:40;21.60;99.90
20998;DHT22;10657;51.276;6.390;2023-07-30T14:24:07;21.80;99.90
20998;DHT22;10657;51.276;6.390;2023-07-30T14:26:34;21.60;99.90
20998;DHT22;10657;51.276;6.390;2023-07-30T14:29:01;22.00;99.90
20998;DHT22;10657;51.276;6.390;2023-07-30T14:31:27;22.60;99.90
20998;DHT22;10657;51.276;6.390;2023-07-30T14:33:54;23.10;99.90
20998;DHT22;10657;51.276;6.390;2023-07-30T14:36:21;23.40;99.90
20998;DHT22;10657;51.276;6.390;2023-07-30T14:38:48;23.20;99.90
20998;DHT22;10657;51.276;6.390;2023-07-30T14:41:14;23.30;99.90
20998;DHT22;10657;51.276;6.390;2023-07-30T14:43:41;23.60;99.90
20998;DHT22;10657;51.276;6.390;2023-07-30T14:46:07;24.00;99.90
20998;DHT22;10657;51.276;6.390;2023-07-30T14:48:40;23.90;99.90
20998;DHT22;10657;51.276;6.390;2023-07-30T14:51:07;24.10;99.90
20998;DHT22;10657;51.276;6.390;2023-07-30T14:53:34;23.80;99.90
20998;DHT22;10657;51.276;6.390;2023-07-30T14:56:01;23.40;99.90
20998;DHT22;10657;51.276;6.390;2023-07-30T14:58:28;23.10;99.90
20998;DHT22;10657;51.276;6.390;2023-07-30T15:00:55;22.80;99.90
20998;DHT22;10657;51.276;6.390;2023-07-30T15:03:21;23.00;99.90
20998;DHT22;10657;51.276;6.390;2023-07-30T15:05:48;22.90;99.90
20998;DHT22;10657;51.276;6.390;2023-07-30T15:08:15;22.80;99.90
20998;DHT22;10657;51.276;6.390;2023-07-30T15:10:42;23.30;99.90
20998;DHT22;10657;51.276;6.390;2023-07-30T15:13:09;23.90;99.90
20998;DHT22;10657;51.276;6.390;2023-07-30T15:15:35;24.40;99.90
20998;DHT22;10657;51.276;6.390;2023-07-30T15:18:02;24.70;99.90
20998;DHT22;10657;51.276;6.390;2023-07-30T15:20:31;24.00;99.90
20998;DHT22;10657;51.276;6.390;2023-07-30T15:22:57;23.40;99.90
20998;DHT22;10657;51.276;6.390;2023-07-30T15:25:25;23.20;99.90
20998;DHT22;10657;51.276;6.390;2023-07-30T15:27:52;23.20;99.90
20998;DHT22;10657;51.276;6.390;2023-07-30T15:30:18;23.10;99.90
20998;DHT22;10657;51.276;6.390;2023-07-30T15:32:45;23.80;99.90
20998;DHT22;10657;51.276;6.390;2023-07-30T15:35:12;24.50;99.90
20998;DHT22;10657;51.276;6.390;2023-07-30T15:37:40;24.90;99.90